Time;durP1;ratioP1;P1;durP2;ratioP2;P2;SDS_P1;SDS_P2;PMS_P1;PMS_P2;Temp;Humidity;BMP_temperature;BMP_pressure;BME280_temperature;BME280_humidity;BME280_pressure;Samples;Min_cycle;Max_cycle;Signal;HPM_P1;HPM_P2
2023/07/09 00:02:12;;;;;;;10.32;6.35;;;23.40;99.90;;;;;;5047553;28;20050;-70
2023/07/09 00:04:38;;;;;;;9.77;5.85;;;23.10;99.90;;;;;;5047203;28;20070;-70
2023/07/09 00:07:04;;;;;;;8.98;6.30;;;23.20;99.90;;;;;;5065963;28;20071;-70
2023/07/09 00:09:30;;;;;;;10.05;6.57;;;23.00;99.90;;;;;;5065471;28;20044;-70
2023/07/09 00:11:56;;;;;;;11.02;7.10;;;22.90;99.90;;;;;;5065162;28;20048;-71
2023/07/09 00:14:22;;;;;;;11.43;6.32;;;23.20;99.90;;;;;;5064477;28;20044;-70
2023/07/09 00:16:48;;;;;;;12.70;6.30;;;23.10;99.90;;;;;;5047206;28;20052;-70
2023/07/09 00:19:17;;;;;;;10.95;6.40;;;23.00;99.90;;;;;;5061445;28;20115;-70
2023/07/09 00:21:45;;;;;;;10.40;6.75;;;22.80;99.90;;;;;;5064476;28;20486;-70
2023/07/09 00:24:12;;;;;;;10.77;6.38;;;22.60;99.90;;;;;;5065528;28;20103;-71
2023/07/09 00:26:38;;;;;;;10.25;5.90;;;22.90;99.90;;;;;;5028966;28;20036;-71
2023/07/09 00:29:04;;;;;;;11.93;5.93;;;22.60;99.90;;;;;;5047638;28;20862;-71
2023/07/09 00:31:30;;;;;;;9.20;6.00;;;22.70;99.90;;;;;;5064871;28;20094;-71
2023/07/09 00:33:56;;;;;;;11.80;6.25;;;22.70;99.90;;;;;;5065875;28;20037;-71
2023/07/09 00:36:31;;;;;;;12.15;6.25;;;22.70;99.90;;;;;;5063834;28;20078;-70
2023/07/09 00:39:00;;;;;;;11.73;5.88;;;22.40;99.90;;;;;;5065778;28;20052;-70
2023/07/09 00:41:28;;;;;;;9.32;6.40;;;22.50;99.90;;;;;;5046918;28;20048;-70
2023/07/09 00:43:53;;;;;;;10.35;6.47;;;22.50;99.90;;;;;;5065134;28;20793;-70
2023/07/09 00:46:19;;;;;;;11.85;7.43;;;22.30;99.90;;;;;;5047486;28;20086;-70
2023/07/09 00:48:57;;;;;;;11.98;6.82;;;22.10;99.90;;;;;;5047328;28;20041;-70
2023/07/09 00:51:25;;;;;;;9.10;5.82;;;22.20;99.90;;;;;;5065758;28;20055;-71
2023/07/09 00:53:55;;;;;;;10.05;6.47;;;22.20;99.90;;;;;;5046463;28;20134;-71
2023/07/09 00:56:37;;;;;;;9.38;6.07;;;22.20;99.90;;;;;;5043192;28;20125;-71
2023/07/09 00:59:06;;;;;;;8.00;6.15;;;22.10;99.90;;;;;;5046235;28;20496;-71
2023/07/09 01:01:33;;;;;;;9.63;6.28;;;21.90;99.90;;;;;;5065236;28;20105;-71
2023/07/09 01:04:03;;;;;;;10.40;7.05;;;21.70;99.90;;;;;;5060708;28;20112;-71
2023/07/09 01:06:41;;;;;;;10.13;5.72;;;21.50;99.90;;;;;;5065007;28;20044;-71
2023/07/09 01:09:07;;;;;;;9.35;5.80;;;21.70;99.90;;;;;;5045254;28;20079;-71
2023/07/09 01:11:34;;;;;;;12.73;6.20;;;21.00;99.90;;;;;;5064251;28;20052;-71
2023/07/09 01:14:02;;;;;;;9.02;5.80;;;20.80;99.90;;;;;;5046650;28;20040;-71
2023/07/09 01:16:31;;;;;;;10.15;7.43;;;20.70;99.90;;;;;;5057235;28;20045;-71
2023/07/09 01:18:57;;;;;;;10.30;6.97;;;20.50;99.90;;;;;;5046519;28;20494;-70
2023/07/09 01:21:23;;;;;;;10.45;7.10;;;20.10;99.90;;;;;;5045942;28;20041;-70
2023/07/09 01:23:54;;;;;;;9.65;6.68;;;20.20;99.90;;;;;;5057655;28;20039;-70
2023/07/09 01:26:25;;;;;;;10.93;6.72;;;20.00;99.90;;;;;;5046208;28;20068;-70
2023/07/09 01:28:52;;;;;;;11.23;7.28;;;19.80;99.90;;;;;;5046189;28;20064;-70
2023/07/09 01:31:20;;;;;;;9.68;7.20;;;19.70;99.90;;;;;;5063787;28;20040;-70
2023/07/09 01:33:46;;;;;;;11.40;6.78;;;19.90;99.90;;;;;;5064303;28;20142;-71
2023/07/09 01:36:24;;;;;;;10.23;6.25;;;17.80;99.90;;;;;;5046325;28;20568;-70
2023/07/09 01:38:53;;;;;;;11.55;6.63;;;20.00;99.90;;;;;;5047739;28;20504;-70
2023/07/09 01:41:19;;;;;;;9.32;6.35;;;19.80;99.90;;;;;;5068536;28;20367;-70
2023/07/09 01:43:45;;;;;;;9.05;7.03;;;19.70;99.90;;;;;;5049328;28;20051;-70
2023/07/09 01:46:16;;;;;;;11.43;6.90;;;19.70;99.90;;;;;;5068925;28;20048;-70
2023/07/09 01:48:42;;;;;;;11.25;7.10;;;19.50;99.90;;;;;;5049368;28;20048;-70
2023/07/09 01:51:10;;;;;;;13.05;7.40;;;19.50;99.90;;;;;;5069218;28;20052;-70
2023/07/09 01:53:37;;;;;;;9.82;7.60;;;19.70;99.90;;;;;;5049661;28;20430;-70
2023/07/09 01:56:04;;;;;;;13.82;6.57;;;19.60;99.90;;;;;;5037986;28;20047;-70
2023/07/09 01:58:31;;;;;;;12.50;6.95;;;19.30;99.90;;;;;;5068029;28;20037;-70
2023/07/09 02:00:57;;;;;;;9.43;6.20;;;19.40;99.90;;;;;;5050419;28;20429;-70
2023/07/09 02:03:24;;;;;;;9.15;6.85;;;19.40;99.90;;;;;;5049847;28;20040;-70
2023/07/09 02:05:53;;;;;;;9.18;6.57;;;19.70;99.90;;;;;;5068093;28;20083;-70
2023/07/09 02:08:19;;;;;;;11.68;7.18;;;19.30;99.90;;;;;;5063484;28;20036;-70
2023/07/09 02:10:48;;;;;;;10.43;6.85;;;19.50;99.90;;;;;;5066421;28;20041;-70
2023/07/09 02:13:13;;;;;;;10.90;6.80;;;19.30;99.90;;;;;;5048518;28;20097;-70
2023/07/09 02:15:43;;;;;;;11.20;6.97;;;19.60;99.90;;;;;;5067454;28;20054;-70
2023/07/09 02:18:09;;;;;;;10.52;6.65;;;19.60;99.90;;;;;;5059483;28;20077;-70
2023/07/09 02:20:35;;;;;;;14.57;6.80;;;19.70;99.90;;;;;;5067556;28;20040;-70
2023/07/09 02:23:00;;;;;;;9.80;6.45;;;19.60;99.90;;;;;;5067869;28;20041;-70
2023/07/09 02:25:26;;;;;;;10.55;6.63;;;19.70;99.90;;;;;;5049011;28;20032;-70
2023/07/09 02:27:51;;;;;;;8.63;6.57;;;19.60;99.90;;;;;;5067104;28;20040;-70
2023/07/09 02:30:17;;;;;;;11.70;7.20;;;19.40;99.90;;;;;;5049024;28;20048;-70
2023/07/09 02:32:42;;;;;;;12.52;7.38;;;19.60;99.90;;;;;;5049576;28;20102;-70
2023/07/09 02:35:08;;;;;;;14.02;7.10;;;;;;;;;;5043892;28;20033;-70
2023/07/09 02:37:34;;;;;;;9.80;7.00;;;19.20;99.90;;;;;;5063854;28;20040;-70
2023/07/09 02:40:00;;;;;;;8.43;6.50;;;19.10;99.90;;;;;;5065301;28;20033;-70
2023/07/09 02:42:25;;;;;;;9.82;7.38;;;19.20;99.90;;;;;;5049604;28;20066;-70
2023/07/09 02:44:51;;;;;;;9.48;7.40;;;19.10;99.90;;;;;;5048380;28;20044;-70
2023/07/09 02:47:17;;;;;;;11.20;6.90;;;19.10;99.90;;;;;;5067527;28;20043;-70
2023/07/09 02:49:42;;;;;;;9.75;6.88;;;19.20;99.90;;;;;;5057000;28;20049;-70
2023/07/09 02:52:08;;;;;;;11.85;7.65;;;19.00;99.90;;;;;;5058386;28;20044;-71
2023/07/09 02:54:34;;;;;;;10.57;7.97;;;19.10;99.90;;;;;;5047993;28;20045;-70
2023/07/09 02:57:00;;;;;;;11.48;6.55;;;19.10;99.90;;;;;;5048410;28;20049;-70
2023/07/09 02:59:29;;;;;;;11.15;7.55;;;19.10;99.90;;;;;;5066001;28;20043;-70
2023/07/09 03:01:55;;;;;;;11.05;7.15;;;19.20;99.90;;;;;;5048313;28;20063;-70
2023/07/09 03:04:20;;;;;;;12.25;6.72;;;19.20;99.90;;;;;;5046814;28;20749;-70
2023/07/09 03:06:46;;;;;;;14.55;6.85;;;;;;;;;;5066120;28;20060;-70
2023/07/09 03:09:12;;;;;;;10.10;6.68;;;19.20;99.90;;;;;;5046895;28;20044;-70
2023/07/09 03:11:38;;;;;;;17.55;7.68;;;18.90;99.90;;;;;;5062913;28;20504;-70
2023/07/09 03:14:04;;;;;;;11.18;7.03;;;19.00;99.90;;;;;;5048892;28;20044;-70
2023/07/09 03:16:32;;;;;;;11.85;6.85;;;19.00;99.90;;;;;;5041642;28;20079;-70
2023/07/09 03:18:58;;;;;;;9.30;6.45;;;19.40;99.90;;;;;;5059400;28;20115;-70
2023/07/09 03:21:25;;;;;;;11.07;7.13;;;19.70;99.90;;;;;;5064401;28;20557;-70
2023/07/09 03:23:51;;;;;;;11.98;7.35;;;19.70;99.90;;;;;;5065521;28;20554;-70
2023/07/09 03:26:17;;;;;;;11.57;8.00;;;20.00;99.90;;;;;;5046064;28;20056;-70
2023/07/09 03:28:43;;;;;;;11.82;7.50;;;19.90;99.90;;;;;;5062208;28;20500;-70
2023/07/09 03:31:08;;;;;;;10.50;6.70;;;20.00;99.90;;;;;;5055961;28;20055;-70
2023/07/09 03:33:34;;;;;;;12.00;7.75;;;20.10;99.90;;;;;;5065794;28;20076;-70
2023/07/09 03:36:00;;;;;;;12.40;7.28;;;;;;;;;;5064177;28;20123;-70
2023/07/09 03:38:26;;;;;;;11.35;8.45;;;;;;;;;;5065307;28;20127;-70
2023/07/09 03:40:53;;;;;;;10.60;8.02;;;20.20;99.90;;;;;;5064165;28;20036;-70
2023/07/09 03:43:19;;;;;;;13.75;7.97;;;20.30;99.90;;;;;;5046931;28;20033;-70
2023/07/09 03:45:45;;;;;;;15.98;7.97;;;;;;;;;;5042140;28;20470;-70
2023/07/09 03:48:11;;;;;;;10.05;7.57;;;;;;;;;;5047281;28;20689;-70
2023/07/09 03:50:37;;;;;;;10.15;7.70;;;;;;;;;;5045651;28;21235;-70
2023/07/09 03:53:03;;;;;;;12.60;7.85;;;20.20;99.90;;;;;;5046861;28;20189;-70
2023/07/09 03:55:29;;;;;;;10.75;8.07;;;;;;;;;;5063177;28;20418;-70
2023/07/09 03:57:55;;;;;;;11.70;7.75;;;20.00;99.90;;;;;;5046416;28;20501;-70
2023/07/09 04:00:21;;;;;;;12.52;7.45;;;;;;;;;;5046021;28;20040;-70
2023/07/09 04:02:47;;;;;;;15.30;8.15;;;;;;;;;;5063200;28;20047;-70
2023/07/09 04:05:13;;;;;;;12.93;8.23;;;20.30;99.90;;;;;;5064573;28;20076;-70
2023/07/09 04:07:38;;;;;;;11.65;7.18;;;20.30;99.90;;;;;;5059561;28;20141;-70
2023/07/09 04:10:06;;;;;;;14.25;8.23;;;20.30;99.90;;;;;;5060091;28;20044;-70
2023/07/09 04:12:31;;;;;;;12.77;7.53;;;20.40;99.90;;;;;;5063099;28;20040;-70
2023/07/09 04:14:57;;;;;;;11.07;7.80;;;20.50;99.90;;;;;;5065165;28;20758;-70
2023/07/09 04:17:23;;;;;;;10.43;8.00;;;;;;;;;;5059538;28;20037;-70
2023/07/09 04:19:53;;;;;;;16.42;8.60;;;20.30;99.90;;;;;;5062599;28;20139;-70
2023/07/09 04:22:18;;;;;;;10.05;7.18;;;20.30;99.90;;;;;;5044278;28;20083;-70
2023/07/09 04:24:45;;;;;;;18.90;7.97;;;20.60;99.90;;;;;;5045817;28;20068;-70
2023/07/09 04:27:11;;;;;;;10.80;7.72;;;20.70;99.90;;;;;;5063563;28;20049;-70
2023/07/09 04:29:38;;;;;;;9.60;6.97;;;20.60;99.90;;;;;;5047379;28;20043;-70
2023/07/09 04:32:04;;;;;;;11.90;7.05;;;20.70;99.90;;;;;;5056924;28;20044;-70
2023/07/09 04:34:30;;;;;;;11.60;7.18;;;20.70;99.90;;;;;;5064390;28;20098;-70
2023/07/09 04:36:55;;;;;;;10.85;7.72;;;20.80;99.90;;;;;;5044075;28;20045;-70
2023/07/09 04:39:21;;;;;;;13.18;7.35;;;20.70;99.90;;;;;;5046523;28;20048;-70
2023/07/09 04:41:47;;;;;;;13.15;7.28;;;20.90;99.90;;;;;;5063129;28;20036;-70
2023/07/09 04:44:12;;;;;;;12.68;7.22;;;20.90;99.90;;;;;;5064730;28;20036;-70
2023/07/09 04:46:39;;;;;;;12.13;7.32;;;20.90;99.90;;;;;;5063071;28;20041;-70
2023/07/09 04:49:04;;;;;;;13.82;8.35;;;21.00;99.90;;;;;;5046446;28;20048;-70
2023/07/09 04:51:30;;;;;;;14.65;7.85;;;21.10;99.90;;;;;;5044994;28;20098;-70
2023/07/09 04:53:55;;;;;;;9.43;6.78;;;21.20;99.90;;;;;;5064494;28;20044;-70
2023/07/09 04:56:21;;;;;;;13.07;8.25;;;21.40;99.90;;;;;;5058538;28;20051;-70
2023/07/09 04:58:46;;;;;;;12.63;7.35;;;21.50;99.90;;;;;;5042093;28;20032;-70
2023/07/09 05:01:12;;;;;;;12.98;7.88;;;21.70;99.90;;;;;;5063520;28;20040;-70
2023/07/09 05:03:38;;;;;;;10.02;8.02;;;21.80;99.90;;;;;;5063059;28;20040;-70
2023/07/09 05:06:04;;;;;;;10.45;7.70;;;21.80;99.90;;;;;;5045270;28;20051;-70
2023/07/09 05:08:30;;;;;;;10.95;7.03;;;21.80;99.90;;;;;;5053114;28;20044;-70
2023/07/09 05:10:57;;;;;;;12.95;7.55;;;21.50;99.90;;;;;;5035195;28;20058;-70
2023/07/09 05:13:23;;;;;;;14.55;8.00;;;21.90;99.90;;;;;;5048637;28;20516;-70
2023/07/09 05:15:50;;;;;;;15.07;7.47;;;21.60;99.90;;;;;;5068607;28;20041;-70
2023/07/09 05:18:16;;;;;;;11.43;7.38;;;21.80;99.90;;;;;;5047514;28;20041;-70
2023/07/09 05:20:42;;;;;;;12.18;7.20;;;21.70;99.90;;;;;;5046980;28;20114;-70
2023/07/09 05:23:11;;;;;;;11.55;6.93;;;21.60;99.90;;;;;;5044573;28;20044;-70
2023/07/09 05:25:36;;;;;;;11.02;7.53;;;21.60;99.90;;;;;;5038799;28;20821;-70
2023/07/09 05:28:03;;;;;;;12.30;8.57;;;21.50;99.90;;;;;;5054438;28;20052;-70
2023/07/09 05:30:29;;;;;;;12.10;7.50;;;21.50;99.90;;;;;;5062608;28;20044;-70
2023/07/09 05:32:57;;;;;;;10.60;7.60;;;21.60;99.90;;;;;;5035589;28;20043;-70
2023/07/09 05:35:25;;;;;;;11.38;8.00;;;21.80;99.90;;;;;;5056897;28;20595;-70
2023/07/09 05:37:51;;;;;;;13.73;9.10;;;21.50;99.90;;;;;;5044464;28;20050;-70
2023/07/09 05:40:16;;;;;;;13.68;7.97;;;21.60;99.90;;;;;;5045865;28;20052;-70
2023/07/09 05:42:42;;;;;;;9.55;7.40;;;21.60;99.90;;;;;;5043592;28;20041;-70
2023/07/09 05:45:08;;;;;;;12.52;7.63;;;21.60;99.90;;;;;;5045322;28;20051;-70
2023/07/09 05:47:34;;;;;;;11.50;7.72;;;21.70;99.90;;;;;;5062170;28;20033;-70
2023/07/09 05:49:59;;;;;;;12.45;8.27;;;21.80;99.90;;;;;;5063457;28;20053;-70
2023/07/09 05:52:25;;;;;;;12.40;7.88;;;21.90;99.90;;;;;;5058299;28;20056;-70
2023/07/09 05:54:51;;;;;;;12.00;7.95;;;21.90;99.90;;;;;;5063443;28;20127;-70
2023/07/09 05:57:17;;;;;;;15.20;8.10;;;22.00;99.90;;;;;;5058681;28;20396;-70
2023/07/09 05:59:43;;;;;;;14.27;8.00;;;22.40;99.90;;;;;;5037722;28;20121;-70
2023/07/09 06:02:13;;;;;;;14.02;8.23;;;22.70;99.90;;;;;;5054187;28;20410;-70
2023/07/09 06:04:39;;;;;;;10.57;7.30;;;23.00;99.90;;;;;;5044067;28;20107;-70
2023/07/09 06:07:05;;;;;;;11.20;7.63;;;23.00;99.90;;;;;;5043430;28;20049;-70
2023/07/09 06:09:31;;;;;;;13.23;8.13;;;23.50;99.90;;;;;;5043934;28;20442;-70
2023/07/09 06:11:57;;;;;;;12.38;8.27;;;23.90;99.90;;;;;;5045278;28;20062;-70
2023/07/09 06:14:24;;;;;;;12.25;7.53;;;25.60;99.90;;;;;;5061948;28;20075;-70
2023/07/09 06:16:49;;;;;;;11.45;7.97;;;24.30;99.90;;;;;;5063301;28;20076;-70
2023/07/09 06:19:15;;;;;;;15.93;8.60;;;24.90;99.90;;;;;;5042656;28;20088;-70
2023/07/09 06:21:40;;;;;;;12.27;7.85;;;25.20;99.90;;;;;;5063366;28;20047;-70
2023/07/09 06:24:08;;;;;;;11.55;7.88;;;25.60;99.90;;;;;;5042442;28;20048;-70
2023/07/09 06:26:33;;;;;;;12.70;7.18;;;25.60;99.90;;;;;;5064701;28;20041;-70
2023/07/09 06:28:59;;;;;;;11.20;7.82;;;26.30;99.90;;;;;;5043242;28;20044;-70
2023/07/09 06:31:24;;;;;;;14.80;7.45;;;26.80;99.90;;;;;;5048426;28;20138;-70
2023/07/09 06:33:50;;;;;;;12.77;8.23;;;26.70;99.90;;;;;;5064451;28;20083;-70
2023/07/09 06:36:16;;;;;;;14.50;7.65;;;26.50;99.90;;;;;;5060098;28;20401;-71
2023/07/09 06:38:42;;;;;;;13.43;7.75;;;28.00;99.90;;;;;;5045947;28;21017;-70
2023/07/09 06:41:07;;;;;;;11.55;6.90;;;26.40;99.90;;;;;;5058767;28;20082;-70
2023/07/09 06:43:34;;;;;;;12.07;8.43;;;26.30;99.90;;;;;;5047217;28;20068;-70
2023/07/09 06:46:01;;;;;;;11.45;7.10;;;26.10;99.90;;;;;;5065187;28;20036;-68
2023/07/09 06:48:28;;;;;;;13.20;7.82;;;25.80;99.90;;;;;;5064437;28;20044;-69
2023/07/09 06:50:55;;;;;;;12.07;8.05;;;25.90;99.90;;;;;;5047683;28;20040;-68
2023/07/09 06:53:21;;;;;;;10.10;7.38;;;26.60;99.90;;;;;;5048233;28;20544;-69
2023/07/09 06:55:48;;;;;;;13.45;7.65;;;25.30;99.90;;;;;;5047849;28;20053;-69
2023/07/09 06:58:16;;;;;;;10.93;7.47;;;25.30;99.90;;;;;;5046268;28;20756;-68
2023/07/09 07:00:42;;;;;;;10.23;7.18;;;25.10;99.90;;;;;;5068515;28;20041;-69
2023/07/09 07:03:09;;;;;;;13.82;7.45;;;25.20;99.90;;;;;;5065531;28;20032;-69
2023/07/09 07:05:35;;;;;;;10.57;7.00;;;25.00;99.90;;;;;;5066038;28;20043;-69
2023/07/09 07:08:02;;;;;;;10.57;7.10;;;25.10;99.90;;;;;;5044262;28;20041;-69
2023/07/09 07:10:28;;;;;;;11.10;7.03;;;25.40;99.90;;;;;;5039287;28;20053;-69
2023/07/09 07:12:54;;;;;;;9.82;6.75;;;25.20;99.90;;;;;;5034537;28;20048;-69
2023/07/09 07:15:20;;;;;;;12.90;7.45;;;25.10;99.90;;;;;;5040519;28;20048;-69
2023/07/09 07:17:46;;;;;;;9.55;6.95;;;25.00;99.90;;;;;;5048816;28;20425;-69
2023/07/09 07:20:12;;;;;;;14.73;7.90;;;25.20;99.90;;;;;;5065059;28;20052;-69
2023/07/09 07:22:39;;;;;;;9.60;6.28;;;25.20;99.90;;;;;;5068766;28;20394;-69
2023/07/09 07:25:06;;;;;;;8.25;6.60;;;25.20;99.90;;;;;;5067145;28;20044;-69
2023/07/09 07:27:32;;;;;;;10.25;6.97;;;25.30;99.90;;;;;;5044739;28;20490;-69
2023/07/09 07:29:57;;;;;;;10.25;6.97;;;25.40;99.90;;;;;;5068752;28;20040;-69
2023/07/09 07:32:24;;;;;;;11.63;7.22;;;26.70;99.90;;;;;;5065611;28;20040;-69
2023/07/09 07:34:49;;;;;;;11.32;7.22;;;25.70;99.90;;;;;;5048998;28;20065;-69
2023/07/09 07:37:19;;;;;;;9.50;6.85;;;25.80;99.90;;;;;;5066172;28;20032;-69
2023/07/09 07:39:44;;;;;;;11.93;7.15;;;25.70;99.90;;;;;;5072038;28;20036;-69
2023/07/09 07:42:10;;;;;;;11.32;6.78;;;25.70;99.90;;;;;;5071603;28;20043;-69
2023/07/09 07:44:36;;;;;;;12.23;7.00;;;25.80;99.90;;;;;;5063487;28;20849;-69
2023/07/09 07:47:01;;;;;;;11.25;6.82;;;27.10;99.90;;;;;;5061071;28;20047;-69
2023/07/09 07:49:27;;;;;;;14.70;7.45;;;25.70;99.90;;;;;;5054481;28;20048;-69
2023/07/09 07:51:52;;;;;;;10.02;6.70;;;25.90;99.90;;;;;;5059821;28;20035;-70
2023/07/09 07:54:18;;;;;;;10.63;6.63;;;26.10;99.90;;;;;;5066258;28;20105;-69
2023/07/09 07:56:43;;;;;;;14.35;6.80;;;26.30;99.90;;;;;;5051914;28;20057;-69
2023/07/09 07:59:09;;;;;;;12.95;7.43;;;26.00;99.90;;;;;;5049394;28;20051;-69
2023/07/09 08:01:35;;;;;;;12.20;7.25;;;26.20;99.90;;;;;;5048613;28;20642;-69
2023/07/09 08:04:02;;;;;;;13.88;7.35;;;26.10;99.90;;;;;;5066648;28;20036;-69
2023/07/09 08:06:28;;;;;;;16.45;8.88;;;26.20;99.90;;;;;;5043173;28;20044;-69
2023/07/09 08:08:54;;;;;;;10.55;7.85;;;26.00;99.90;;;;;;5065289;28;20043;-69
2023/07/09 08:11:19;;;;;;;13.50;8.45;;;26.30;99.90;;;;;;5064055;28;20044;-69
2023/07/09 08:13:45;;;;;;;12.77;7.93;;;26.30;99.90;;;;;;5042064;28;20052;-69
2023/07/09 08:16:11;;;;;;;13.93;9.73;;;26.10;99.90;;;;;;5044994;28;20921;-70
2023/07/09 08:18:38;;;;;;;14.88;9.20;;;26.30;99.90;;;;;;5065826;28;20072;-69
2023/07/09 08:21:03;;;;;;;12.85;8.45;;;26.40;99.90;;;;;;5050459;28;20044;-69
2023/07/09 08:23:29;;;;;;;15.57;8.63;;;26.20;99.90;;;;;;5024748;28;20056;-69
2023/07/09 08:25:57;;;;;;;13.07;8.40;;;26.40;99.90;;;;;;5063308;28;20076;-69
2023/07/09 08:28:23;;;;;;;12.85;9.13;;;28.20;99.90;;;;;;5067041;28;20045;-70
2023/07/09 08:30:51;;;;;;;11.18;8.23;;;26.60;99.90;;;;;;5051654;28;20460;-70
2023/07/09 08:33:16;;;;;;;11.75;9.15;;;28.30;99.90;;;;;;5072552;28;20076;-69
2023/07/09 08:35:43;;;;;;;16.02;10.00;;;26.70;99.90;;;;;;5065072;28;20053;-70
2023/07/09 08:38:09;;;;;;;15.15;9.80;;;27.90;99.90;;;;;;5069844;28;20048;-69
2023/07/09 08:40:39;;;;;;;15.93;9.38;;;26.80;99.90;;;;;;5046747;28;20052;-70
2023/07/09 08:43:31;;;;;;;14.43;9.88;;;27.00;99.90;;;;;;5064849;28;20032;-70
2023/07/09 08:46:01;;;;;;;19.23;10.90;;;26.90;99.90;;;;;;5059403;28;20090;-70
2023/07/09 08:48:35;;;;;;;13.38;9.07;;;27.10;99.90;;;;;;5041970;28;20044;-69
2023/07/09 08:51:17;;;;;;;13.20;9.57;;;27.10;99.90;;;;;;5061452;28;20076;-70
2023/07/09 08:53:59;;;;;;;18.95;9.82;;;27.20;99.90;;;;;;5053026;28;20056;-69
2023/07/09 08:56:28;;;;;;;15.45;10.35;;;27.20;99.90;;;;;;5042620;28;20071;-68
2023/07/09 08:58:56;;;;;;;14.50;9.80;;;27.10;99.90;;;;;;5048576;28;20210;-70
2023/07/09 09:01:30;;;;;;;15.23;10.93;;;27.60;99.90;;;;;;5056709;28;20048;-70
2023/07/09 09:04:02;;;;;;;16.88;11.07;;;27.30;99.90;;;;;;5053911;28;20041;-70
2023/07/09 09:06:30;;;;;;;15.40;10.30;;;27.40;99.90;;;;;;5066512;28;20040;-70
2023/07/09 09:09:04;;;;;;;16.35;10.75;;;27.40;99.90;;;;;;5069943;28;20040;-70
2023/07/09 09:11:33;;;;;;;16.88;10.27;;;27.50;99.90;;;;;;5061888;28;20388;-69
2023/07/09 09:14:04;;;;;;;13.30;10.88;;;27.40;99.90;;;;;;5046877;28;20097;-70
2023/07/09 09:16:33;;;;;;;16.48;11.10;;;27.60;99.90;;;;;;5066057;28;20055;-70
2023/07/09 09:19:01;;;;;;;15.27;11.30;;;29.30;99.90;;;;;;5065752;28;20028;-70
2023/07/09 09:21:35;;;;;;;14.48;11.27;;;27.50;99.90;;;;;;5061022;28;20036;-69
2023/07/09 09:24:12;;;;;;;;;;;27.70;99.90;;;;;;5047481;28;20045;-69
2023/07/09 09:26:40;;;;;;;17.27;11.82;;;28.90;99.90;;;;;;5051459;28;19920;-69
2023/07/09 09:29:12;;;;;;;19.58;13.35;;;27.80;99.90;;;;;;5042486;28;20052;-70
2023/07/09 09:31:37;;;;;;;16.83;12.30;;;27.60;99.90;;;;;;5047636;28;20047;-70
2023/07/09 09:34:05;;;;;;;14.20;9.55;;;27.60;99.90;;;;;;5041191;28;20049;-70
2023/07/09 09:36:30;;;;;;;18.52;11.30;;;27.90;99.90;;;;;;5068805;28;20094;-70
2023/07/09 09:39:01;;;;;;;19.63;12.13;;;28.00;99.90;;;;;;5065639;28;20040;-69
2023/07/09 09:41:31;;;;;;;20.83;13.48;;;29.00;99.90;;;;;;5044239;28;20068;-70
2023/07/09 09:43:57;;;;;;;15.52;11.20;;;29.40;99.90;;;;;;5048844;28;20398;-69
2023/07/09 09:46:26;;;;;;;17.33;10.25;;;28.10;99.90;;;;;;5051680;28;20040;-70
2023/07/09 09:48:59;;;;;;;15.95;11.23;;;28.10;99.90;;;;;;5048650;28;20053;-69
2023/07/09 09:51:24;;;;;;;14.20;10.60;;;28.50;99.90;;;;;;5044218;28;20047;-70
2023/07/09 09:53:55;;;;;;;15.52;11.35;;;28.20;99.90;;;;;;5073758;28;20444;-70
2023/07/09 09:56:30;;;;;;;14.55;10.57;;;28.60;99.90;;;;;;5051397;28;20045;-70
2023/07/09 09:58:57;;;;;;;13.68;10.30;;;29.70;99.90;;;;;;5046220;28;20089;-70
2023/07/09 10:01:31;;;;;;;18.50;12.63;;;29.90;99.90;;;;;;5070221;28;20086;-69
2023/07/09 10:03:59;;;;;;;17.75;11.07;;;28.60;99.90;;;;;;5033442;28;20041;-70
2023/07/09 10:06:35;;;;;;;16.98;12.68;;;28.50;99.90;;;;;;5050493;28;20432;-70
2023/07/09 10:09:29;;;;;;;16.73;10.95;;;28.50;99.90;;;;;;5047246;28;20139;-70
2023/07/09 10:12:12;;;;;;;12.43;10.73;;;28.80;99.90;;;;;;5047392;28;20049;-69
2023/07/09 10:14:51;;;;;;;14.73;11.75;;;28.60;99.90;;;;;;5057946;28;20091;-69
2023/07/09 10:17:35;;;;;;;17.30;10.57;;;28.80;99.90;;;;;;5045076;28;20060;-70
2023/07/09 10:20:19;;;;;;;16.35;10.70;;;28.90;99.90;;;;;;5045122;28;20044;-70
2023/07/09 10:22:53;;;;;;;15.45;10.57;;;28.80;99.90;;;;;;5042937;28;20045;-70
2023/07/09 10:25:34;;;;;;;15.38;11.02;;;28.70;99.90;;;;;;5041590;28;20163;-70
2023/07/09 10:28:16;;;;;;;14.90;11.40;;;29.20;99.90;;;;;;5068147;28;20048;-70
2023/07/09 10:30:50;;;;;;;18.45;9.88;;;29.10;99.90;;;;;;5067904;28;20568;-69
2023/07/09 10:33:33;;;;;;;21.65;10.65;;;28.90;99.90;;;;;;5070653;28;20111;-70
2023/07/09 10:36:13;;;;;;;17.45;9.77;;;29.30;99.90;;;;;;5066382;28;20048;-70
2023/07/09 10:38:45;;;;;;;15.85;9.93;;;29.40;99.90;;;;;;5061158;28;20063;-70
2023/07/09 10:41:12;;;;;;;12.88;9.00;;;29.20;99.90;;;;;;5048429;28;20551;-70
2023/07/09 10:43:47;;;;;;;12.85;9.60;;;29.40;99.90;;;;;;5072032;28;20044;-70
2023/07/09 10:46:16;;;;;;;17.00;11.23;;;30.50;99.90;;;;;;5048120;28;20061;-70
2023/07/09 10:48:46;;;;;;;18.20;10.68;;;29.30;99.90;;;;;;5055224;28;21132;-70
2023/07/09 10:51:32;;;;;;;15.82;9.70;;;31.30;99.90;;;;;;5063180;28;20037;-69
2023/07/09 10:54:04;;;;;;;15.77;9.80;;;31.30;99.90;;;;;;5061923;28;20071;-70
2023/07/09 10:56:35;;;;;;;15.63;9.18;;;29.60;99.90;;;;;;5046834;28;20044;-69
2023/07/09 10:59:28;;;;;;;13.00;9.50;;;29.50;99.90;;;;;;5043343;28;21126;-69
2023/07/09 11:02:19;;;;;;;11.75;9.18;;;29.70;99.90;;;;;;5072879;28;20044;-69
2023/07/09 11:04:51;;;;;;;13.25;8.43;;;29.90;99.90;;;;;;5064342;28;20037;-69
2023/07/09 11:07:29;;;;;;;15.43;8.82;;;29.90;99.90;;;;;;5052461;28;20520;-69
2023/07/09 11:09:57;;;;;;;14.38;8.98;;;29.70;99.90;;;;;;5070162;28;20032;-70
2023/07/09 11:12:38;;;;;;;12.60;7.85;;;29.90;99.90;;;;;;5051696;28;20056;-69
2023/07/09 11:15:18;;;;;;;12.05;7.90;;;30.00;99.90;;;;;;5064967;28;20045;-69
2023/07/09 11:17:46;;;;;;;14.73;9.00;;;29.80;99.90;;;;;;5068919;28;20044;-69
2023/07/09 11:20:41;;;;;;;12.25;8.55;;;30.80;99.90;;;;;;5066537;28;20041;-69
2023/07/09 11:23:22;;;;;;;11.25;9.00;;;31.10;99.90;;;;;;5043342;28;20746;-69
2023/07/09 11:26:21;;;;;;;12.77;9.27;;;29.70;99.90;;;;;;5062614;28;20123;-69
2023/07/09 11:28:55;;;;;;;15.05;9.43;;;30.30;99.90;;;;;;5040919;28;20036;-69
2023/07/09 11:31:38;;;;;;;12.63;7.95;;;30.10;99.90;;;;;;5061355;28;20050;-69
2023/07/09 11:34:10;;;;;;;12.85;9.45;;;30.20;99.90;;;;;;5044364;28;20097;-70
2023/07/09 11:36:58;;;;;;;12.30;8.20;;;30.70;99.90;;;;;;5043968;28;20119;-70
2023/07/09 11:39:35;;;;;;;11.63;7.88;;;30.30;99.90;;;;;;5063404;28;21330;-70
2023/07/09 11:42:01;;;;;;;10.32;7.68;;;30.30;99.90;;;;;;5053487;28;20036;-70
2023/07/09 11:44:30;;;;;;;11.82;8.00;;;30.20;99.90;;;;;;5063913;28;20055;-70
2023/07/09 11:47:19;;;;;;;12.45;7.30;;;30.30;99.90;;;;;;5043748;28;20040;-70
2023/07/09 11:49:59;;;;;;;12.52;8.68;;;30.50;99.90;;;;;;5043799;28;20055;-71
2023/07/09 11:52:41;;;;;;;11.13;7.50;;;30.60;99.90;;;;;;5036436;28;20064;-71
2023/07/09 11:55:39;;;;;;;17.00;7.32;;;31.80;99.90;;;;;;5037931;28;20041;-70
2023/07/09 11:58:05;;;;;;;13.52;7.28;;;30.60;99.90;;;;;;5053537;28;20037;-70
2023/07/09 12:00:45;;;;;;;8.52;6.68;;;30.50;99.90;;;;;;5055881;28;20683;-71
2023/07/09 12:03:25;;;;;;;13.07;7.28;;;30.70;99.90;;;;;;5054924;28;20045;-70
2023/07/09 12:05:56;;;;;;;14.20;7.00;;;30.50;99.90;;;;;;5058241;28;20045;-71
2023/07/09 12:08:33;;;;;;;11.15;7.30;;;30.50;99.90;;;;;;5048215;28;20048;-71
2023/07/09 12:10:59;;;;;;;9.95;6.75;;;30.80;99.90;;;;;;5046722;28;20419;-71
2023/07/09 12:13:25;;;;;;;10.27;7.28;;;31.80;99.90;;;;;;5046900;28;20119;-71
2023/07/09 12:15:51;;;;;;;11.23;6.85;;;30.90;99.90;;;;;;5063464;28;20043;-70
2023/07/09 12:18:16;;;;;;;11.18;7.55;;;30.80;99.90;;;;;;5063414;28;20110;-70
2023/07/09 12:20:53;;;;;;;12.20;6.75;;;31.50;99.90;;;;;;5045216;28;20054;-70
2023/07/09 12:23:21;;;;;;;13.38;6.25;;;32.80;99.90;;;;;;5056382;28;20051;-70
2023/07/09 12:25:51;;;;;;;11.40;6.60;;;31.10;99.90;;;;;;5044540;28;20080;-70
2023/07/09 12:28:18;;;;;;;10.70;5.88;;;31.10;99.90;;;;;;5041844;28;20541;-70
2023/07/09 12:30:48;;;;;;;5.95;4.07;;;31.10;99.90;;;;;;5054639;28;20041;-70
2023/07/09 12:33:19;;;;;;;7.20;4.35;;;31.00;99.90;;;;;;5045163;28;20097;-70
2023/07/09 12:35:46;;;;;;;6.38;3.92;;;30.90;99.90;;;;;;5045540;28;20044;-69
2023/07/09 12:38:21;;;;;;;9.20;4.53;;;32.00;99.90;;;;;;5059372;28;20068;-70
2023/07/09 12:40:48;;;;;;;6.10;3.92;;;31.00;99.90;;;;;;5043414;28;20048;-70
2023/07/09 12:43:17;;;;;;;8.95;4.45;;;31.10;99.90;;;;;;5046221;28;20508;-70
2023/07/09 12:45:42;;;;;;;8.15;5.07;;;32.40;99.90;;;;;;5061059;28;20043;-69
2023/07/09 12:48:13;;;;;;;10.05;4.20;;;31.30;99.90;;;;;;5067213;28;20418;-69
2023/07/09 12:50:38;;;;;;;8.40;4.35;;;32.90;99.90;;;;;;5061831;28;20394;-69